Flight Track Log - Related Links

Times and Time Zones

All times are in EDT time to prevent confusion due to time zone crossing. See the AUB2130 flight status page for this flight to view local times or setup timezone preferences in your user account.


Time Position Orientation Groundspeed Altitude Reporting Facility
EDT Latitude Longitude Course Direction KTS MPH feet Rate Location/Type
Mon 01:22:15 PM 48.3738 11.7995 24° Northeast  Level Estimated
Mon 01:23:15 PM 48.4538 11.8532 24° Northeast  Level Estimated
Mon 01:24:15 PM 48.5337 11.9070 24° Northeast  Level Estimated
Mon 01:25:15 PM 48.6137 11.9611 24° Northeast  Level Estimated
Mon 01:26:15 PM 48.6936 12.0153 24° Northeast  Level Estimated
Mon 01:27:15 PM 48.7735 12.0696 24° Northeast  Level Estimated
Mon 01:28:15 PM 48.8534 12.1242 24° Northeast  Level Estimated
Mon 01:29:15 PM 48.9332 12.1789 24° Northeast  Level Estimated
Mon 01:30:15 PM 49.0130 12.2338 24° Northeast  Level Estimated
Mon 01:31:15 PM 49.0928 12.2889 24° Northeast  Level Estimated
Mon 01:32:15 PM 49.1726 12.3441 24° Northeast  Level Estimated
Mon 01:33:15 PM 49.2523 12.3996 24° Northeast  Level Estimated
Mon 01:34:15 PM 49.3320 12.4552 24° Northeast  Level Estimated
Mon 01:35:15 PM 49.4117 12.5110 25° Northeast  Level Estimated
Mon 01:36:15 PM 49.4914 12.5669 25° Northeast  Level Estimated
Mon 01:37:15 PM 49.5710 12.6231 25° Northeast  Level Estimated
Mon 01:38:15 PM 49.6506 12.6794 25° Northeast  Level Estimated
Mon 01:39:15 PM 49.7302 12.7359 25° Northeast  Level Estimated
Mon 01:40:15 PM 49.8097 12.7926 25° Northeast  Level Estimated
Mon 01:41:15 PM 49.8892 12.8495 25° Northeast  Level Estimated
Mon 01:42:15 PM 49.9687 12.9066 25° Northeast  Level Estimated
Mon 01:43:15 PM 50.0482 12.9639 25° Northeast  Level Estimated
Mon 01:44:15 PM 50.1276 13.0213 25° Northeast  Level Estimated
Mon 01:45:15 PM 50.2070 13.0790 25° Northeast  Level Estimated
Mon 01:46:15 PM 50.2864 13.1368 25° Northeast  Level Estimated
Mon 01:47:15 PM 50.3657 13.1948 25° Northeast  Level Estimated
Mon 01:48:15 PM 50.4451 13.2531 25° Northeast  Level Estimated
Mon 01:49:15 PM 50.5244 13.3115 25° Northeast  Level Estimated
Mon 01:50:15 PM 50.6036 13.3701 25° Northeast  Level Estimated
Mon 01:51:15 PM 50.6828 13.4289 25° Northeast  Level Estimated
Mon 01:52:15 PM 50.7621 13.4880 25° Northeast  Level Estimated
Mon 01:53:15 PM 50.8412 13.5472 25° Northeast  Level Estimated
Mon 01:54:15 PM 50.9204 13.6066 25° Northeast  Level Estimated
Mon 01:55:15 PM 50.9995 13.6662 25° Northeast  Level Estimated
Mon 01:56:15 PM 51.0785 13.7260 25° Northeast  Level Estimated
Mon 01:57:15 PM 51.1576 13.7860 206° Southwest  Level Estimated
Mon 01:58:15 PM 51.0785 13.7260 25° Northeast  Level Estimated
Mon 01:59:15 PM 51.1576 13.7860 206° Southwest  Level Estimated
Mon 02:00:15 PM 51.0785 13.7260 25° Northeast  Level Estimated
Mon 02:01:15 PM 51.1576 13.7860 206° Southwest  Level Estimated
Mon 02:02:15 PM 51.0785 13.7260 25° Northeast  Level Estimated
Mon 02:03:15 PM 51.1576 13.7860 206° Southwest  Level Estimated
Mon 02:04:15 PM 51.0785 13.7260 25° Northeast  Level Estimated
Mon 02:05:15 PM 51.1576 13.7860 206° Southwest  Level Estimated
Mon 02:06:15 PM 51.0785 13.7260 25° Northeast  Level Estimated
Mon 02:07:15 PM 51.1576 13.7860 206° Southwest  Level Estimated
Mon 02:08:15 PM 51.0785 13.7260 25° Northeast  Level Estimated
Mon 02:09:15 PM 51.1576 13.7860 206° Southwest  Level Estimated
Mon 02:10:15 PM 51.0785 13.7260 25° Northeast  Level Estimated
Mon 02:11:15 PM 51.1576 13.7860 206° Southwest  Level Estimated
Mon 02:12:15 PM 51.0785 13.7260 206° Southwest  Level Estimated

Login

Don't have an account? Register now (free) for customized features, flight alerts, and more!